createdAt,value
2022-11-25T00:00:16.248Z,4.62
2022-11-25T00:01:16.177Z,4.56
2022-11-25T00:02:16.221Z,4.57
2022-11-25T00:03:16.068Z,4.67
2022-11-25T00:04:15.997Z,4.64
2022-11-25T00:05:15.883Z,4.59
2022-11-25T00:06:15.852Z,4.65
2022-11-25T00:07:15.854Z,4.67
2022-11-25T00:08:15.687Z,4.67
2022-11-25T00:09:15.695Z,4.56
2022-11-25T00:10:15.612Z,4.72
2022-11-25T00:11:15.558Z,4.68
2022-11-25T00:12:15.412Z,4.64
2022-11-25T00:13:15.347Z,4.61
2022-11-25T00:14:15.307Z,4.67
2022-11-25T00:15:15.221Z,4.68
2022-11-25T00:16:15.219Z,4.69
2022-11-25T00:17:15.068Z,4.69
2022-11-25T00:18:15.019Z,4.69
2022-11-25T00:19:14.950Z,4.71
2022-11-25T00:20:14.872Z,4.72
2022-11-25T00:21:14.789Z,4.71
2022-11-25T00:22:14.726Z,4.72
2022-11-25T00:23:14.817Z,4.74
2022-11-25T00:24:14.607Z,4.72
2022-11-25T00:25:14.512Z,4.74
2022-11-25T00:26:14.447Z,4.69
2022-11-25T00:27:14.398Z,4.74
2022-11-25T00:28:14.327Z,4.69
2022-11-25T00:29:14.353Z,4.68
2022-11-25T00:30:14.188Z,4.72
2022-11-25T00:31:14.188Z,4.74
2022-11-25T00:32:14.045Z,4.72
2022-11-25T00:33:14.049Z,4.79
2022-11-25T00:34:13.932Z,4.71
2022-11-25T00:35:13.854Z,4.86
2022-11-25T00:36:13.779Z,4.75
2022-11-25T00:37:13.708Z,4.75
2022-11-25T00:38:13.691Z,4.75
2022-11-25T00:39:13.559Z,4.75
2022-11-25T00:40:13.488Z,4.75
2022-11-25T00:41:13.418Z,4.77
2022-11-25T00:42:13.363Z,4.79
2022-11-25T00:43:13.371Z,4.79
2022-11-25T00:44:13.218Z,4.84
2022-11-25T00:45:13.289Z,4.75
2022-11-25T00:46:13.138Z,4.86
2022-11-25T00:47:13.020Z,4.83
2022-11-25T00:48:12.944Z,4.87
2022-11-25T00:49:12.875Z,4.84
2022-11-25T00:50:12.864Z,4.88
2022-11-25T00:51:12.757Z,4.88
2022-11-25T00:52:12.875Z,4.80
2022-11-25T00:53:12.603Z,4.80
2022-11-25T00:54:12.533Z,4.83
2022-11-25T00:55:12.466Z,4.83
2022-11-25T00:56:12.394Z,4.83
2022-11-25T00:57:12.351Z,4.91
2022-11-25T00:58:12.277Z,4.84
2022-11-25T00:59:12.186Z,4.84
2022-11-25T01:00:12.120Z,4.86
2022-11-25T01:01:12.119Z,4.86
2022-11-25T01:02:12.097Z,4.83
2022-11-25T01:03:11.920Z,4.86
2022-11-25T01:04:11.852Z,4.83
2022-11-25T01:05:11.783Z,4.88
2022-11-25T01:06:11.736Z,4.90
2022-11-25T01:07:11.671Z,4.91
2022-11-25T01:08:11.579Z,4.84
2022-11-25T01:09:11.520Z,4.84
2022-11-25T01:10:11.458Z,4.91
2022-11-25T01:11:11.371Z,4.93
2022-11-25T01:12:11.313Z,4.94
2022-11-25T01:13:11.246Z,4.90
2022-11-25T01:14:11.181Z,4.88
2022-11-25T01:15:11.097Z,4.87
2022-11-25T01:16:11.090Z,4.91
2022-11-25T01:17:10.961Z,4.84
2022-11-25T01:18:10.900Z,4.91
2022-11-25T01:19:10.878Z,4.93
2022-11-25T01:20:10.797Z,4.94
2022-11-25T01:21:10.706Z,4.91
2022-11-25T01:22:10.643Z,4.90
2022-11-25T01:23:10.551Z,4.90
2022-11-25T01:24:10.486Z,4.88
2022-11-25T01:25:10.440Z,4.87
2022-11-25T01:26:10.376Z,4.94
2022-11-25T01:27:10.282Z,4.90
2022-11-25T01:28:10.317Z,4.88
2022-11-25T01:29:10.142Z,4.87
2022-11-25T01:30:10.080Z,4.83
2022-11-25T01:31:10.135Z,4.83
2022-11-25T01:32:10.030Z,4.80
2022-11-25T01:33:09.927Z,4.77
2022-11-25T01:34:09.803Z,4.83
2022-11-25T01:35:09.741Z,4.75
2022-11-25T01:36:09.705Z,4.72
2022-11-25T01:37:09.623Z,4.71
2022-11-25T01:38:09.542Z,4.64
2022-11-25T01:39:09.498Z,4.68
2022-11-25T01:40:09.399Z,4.65
2022-11-25T01:41:09.331Z,4.69
2022-11-25T01:42:09.261Z,4.59
2022-11-25T01:43:09.206Z,4.53
2022-11-25T01:44:09.121Z,4.62
2022-11-25T01:45:09.117Z,4.62
2022-11-25T01:46:09.261Z,4.54
2022-11-25T01:47:08.940Z,4.67
2022-11-25T01:48:08.841Z,4.57
2022-11-25T01:49:08.789Z,4.61
2022-11-25T01:50:08.732Z,4.59
2022-11-25T01:51:08.732Z,4.57
2022-11-25T01:52:08.581Z,4.56
2022-11-25T01:53:08.504Z,4.67
2022-11-25T01:54:08.455Z,4.62
2022-11-25T01:55:08.377Z,4.62
2022-11-25T01:56:08.319Z,4.65
2022-11-25T01:57:08.236Z,4.64
2022-11-25T01:58:08.195Z,4.62
2022-11-25T01:59:08.115Z,4.59
2022-11-25T02:00:08.043Z,4.68
2022-11-25T02:01:08.047Z,4.61
2022-11-25T02:02:08.001Z,4.59
2022-11-25T02:03:07.829Z,4.68
2022-11-25T02:04:07.763Z,4.67
2022-11-25T02:05:07.751Z,4.56
2022-11-25T02:06:07.619Z,4.65
2022-11-25T02:07:07.553Z,4.68
2022-11-25T02:08:07.486Z,4.64
2022-11-25T02:09:07.429Z,4.68
2022-11-25T02:10:07.465Z,4.62
2022-11-25T02:11:07.278Z,4.61
2022-11-25T02:12:07.208Z,4.69
2022-11-25T02:13:07.142Z,4.67
2022-11-25T02:14:07.097Z,4.69
2022-11-25T02:15:07.059Z,4.80
2022-11-25T02:16:06.968Z,4.71
2022-11-25T02:17:06.889Z,4.80
2022-11-25T02:18:06.811Z,4.77
2022-11-25T02:19:07.517Z,4.79
2022-11-25T02:20:06.686Z,4.74
2022-11-25T02:21:06.610Z,4.79
2022-11-25T02:22:06.545Z,4.79
2022-11-25T02:23:06.469Z,4.83
2022-11-25T02:24:06.403Z,4.93
2022-11-25T02:25:06.331Z,4.87
2022-11-25T02:26:06.340Z,4.87
2022-11-25T02:27:06.185Z,4.88
2022-11-25T02:28:06.121Z,4.93
2022-11-25T02:29:06.054Z,4.97
2022-11-25T02:30:05.987Z,4.96
2022-11-25T02:31:05.964Z,4.91
2022-11-25T02:32:05.927Z,4.94
2022-11-25T02:33:05.774Z,4.87
2022-11-25T02:34:05.719Z,4.91
2022-11-25T02:35:05.654Z,4.86
2022-11-25T02:36:05.638Z,4.88
2022-11-25T02:37:05.502Z,4.88
2022-11-25T02:38:05.499Z,4.86
2022-11-25T02:39:05.362Z,4.97
2022-11-25T02:40:05.329Z,5.01
2022-11-25T02:41:05.287Z,5.06
2022-11-25T02:42:05.220Z,5.06
2022-11-25T02:43:05.161Z,5.04
2022-11-25T02:44:05.030Z,4.90
2022-11-25T02:45:04.951Z,4.83
2022-11-25T02:46:04.980Z,4.86
2022-11-25T02:47:04.833Z,4.86
2022-11-25T02:48:04.769Z,4.90
2022-11-25T02:49:09.324Z,4.84
2022-11-25T02:50:04.620Z,4.88
2022-11-25T02:51:04.574Z,4.90
2022-11-25T02:52:04.499Z,4.88
2022-11-25T02:53:04.476Z,4.90
2022-11-25T02:54:04.405Z,4.88
2022-11-25T02:55:04.328Z,4.91
2022-11-25T02:56:04.201Z,4.86
2022-11-25T02:57:04.147Z,4.90
2022-11-25T02:58:04.076Z,4.87
2022-11-25T02:59:04.025Z,4.87
2022-11-25T03:00:03.959Z,5.09
2022-11-25T03:01:03.877Z,5.08
2022-11-25T03:02:03.878Z,5.11
2022-11-25T03:03:03.721Z,5.17
2022-11-25T03:04:03.676Z,5.19
2022-11-25T03:05:03.653Z,5.04
2022-11-25T03:06:03.550Z,5.11
2022-11-25T03:07:03.447Z,5.12
2022-11-25T03:08:03.403Z,5.08
2022-11-25T03:09:03.340Z,5.05
2022-11-25T03:10:03.267Z,5.04
2022-11-25T03:11:03.231Z,5.04
2022-11-25T03:12:03.125Z,5.06
2022-11-25T03:13:03.112Z,5.05
2022-11-25T03:14:02.987Z,5.08
2022-11-25T03:15:02.910Z,5.06
2022-11-25T03:16:02.888Z,5.06
2022-11-25T03:17:02.763Z,5.06
2022-11-25T03:18:02.706Z,5.05
2022-11-25T03:19:02.740Z,5.20
2022-11-25T03:20:02.563Z,5.08
2022-11-25T03:21:02.583Z,5.06
2022-11-25T03:22:02.422Z,5.24
2022-11-25T03:23:02.354Z,5.20
2022-11-25T03:24:02.290Z,5.19
2022-11-25T03:25:02.245Z,5.27
2022-11-25T03:26:02.176Z,5.24
2022-11-25T03:27:02.118Z,5.35
2022-11-25T03:28:02.017Z,5.29
2022-11-25T03:29:01.979Z,5.35
2022-11-25T03:30:01.894Z,5.30
2022-11-25T03:31:01.825Z,5.38
2022-11-25T03:32:04.302Z,5.38
2022-11-25T03:33:01.680Z,5.38
2022-11-25T03:34:01.605Z,5.35
2022-11-25T03:35:01.537Z,5.33
2022-11-25T03:36:01.504Z,5.35
2022-11-25T03:37:01.569Z,5.37
2022-11-25T03:38:01.329Z,5.30
2022-11-25T03:39:01.360Z,5.30
2022-11-25T03:40:01.228Z,5.41
2022-11-25T03:41:01.227Z,5.41
2022-11-25T03:42:01.069Z,5.37
2022-11-25T03:43:01.001Z,5.35
2022-11-25T03:44:00.928Z,5.38
2022-11-25T03:45:00.940Z,5.38
2022-11-25T03:46:00.868Z,5.29
2022-11-25T03:47:00.766Z,5.35
2022-11-25T03:48:00.662Z,5.32
2022-11-25T03:49:00.584Z,5.37
2022-11-25T03:50:00.591Z,5.41
2022-11-25T03:51:00.468Z,5.41
2022-11-25T03:52:00.381Z,5.40
2022-11-25T03:53:00.316Z,5.37
2022-11-25T03:54:00.245Z,5.41
2022-11-25T03:55:00.234Z,5.37
2022-11-25T03:56:00.157Z,5.38
2022-11-25T03:57:00.108Z,5.38
2022-11-25T03:58:00.007Z,5.37
2022-11-25T03:58:59.910Z,5.35
2022-11-25T03:59:59.907Z,5.41
2022-11-25T04:00:59.862Z,5.41
2022-11-25T04:01:59.728Z,5.41
2022-11-25T04:02:59.759Z,5.38
2022-11-25T04:03:59.579Z,5.45
2022-11-25T04:04:59.497Z,5.44
2022-11-25T04:05:59.493Z,5.40
2022-11-25T04:06:59.363Z,5.42
2022-11-25T04:07:59.366Z,5.42
2022-11-25T04:08:59.228Z,5.47
2022-11-25T04:09:59.185Z,5.44
2022-11-25T04:10:59.152Z,5.35
2022-11-25T04:11:59.019Z,5.48
2022-11-25T04:12:59.043Z,5.42
2022-11-25T04:13:58.931Z,5.47
2022-11-25T04:14:58.832Z,5.42
2022-11-25T04:15:58.772Z,5.51
2022-11-25T04:16:58.723Z,5.48
2022-11-25T04:17:58.638Z,5.33
2022-11-25T04:18:58.558Z,5.42
2022-11-25T04:19:58.474Z,5.42
2022-11-25T04:20:58.431Z,5.35
2022-11-25T04:21:58.389Z,5.33
2022-11-25T04:22:58.291Z,5.37
2022-11-25T04:23:58.260Z,5.40
2022-11-25T04:24:58.171Z,5.38
2022-11-25T04:25:58.081Z,5.37
2022-11-25T04:26:58.085Z,5.38
2022-11-25T04:27:58.027Z,5.35
2022-11-25T04:28:57.917Z,5.38
2022-11-25T04:29:57.823Z,5.38
2022-11-25T04:30:57.875Z,5.35
2022-11-25T04:31:57.730Z,5.32
2022-11-25T04:32:57.604Z,5.40
2022-11-25T04:33:57.534Z,5.45
2022-11-25T04:34:57.532Z,5.44
2022-11-25T04:35:57.528Z,5.48
2022-11-25T04:36:57.325Z,5.49
2022-11-25T04:37:57.255Z,5.48
2022-11-25T04:38:57.196Z,5.45
2022-11-25T04:39:57.148Z,5.52
2022-11-25T04:40:57.064Z,5.44
2022-11-25T04:41:57.064Z,5.44
2022-11-25T04:43:02.564Z,5.49
2022-11-25T04:43:56.992Z,5.52
2022-11-25T04:45:21.612Z,5.47
2022-11-25T04:46:13.427Z,5.51
2022-11-25T04:46:56.735Z,5.45
2022-11-25T04:47:56.608Z,5.51
2022-11-25T04:48:56.526Z,5.45
2022-11-25T04:49:56.452Z,5.51
2022-11-25T04:50:56.387Z,5.45
2022-11-25T04:51:56.315Z,5.52
2022-11-25T04:52:56.373Z,5.51
2022-11-25T04:53:56.163Z,5.55
2022-11-25T04:54:56.150Z,5.55
2022-11-25T04:55:56.041Z,5.58
2022-11-25T04:56:56.136Z,5.59
2022-11-25T04:57:55.953Z,5.58
2022-11-25T04:58:55.869Z,5.49
2022-11-25T04:59:55.784Z,5.56
2022-11-25T05:00:55.735Z,5.48
2022-11-25T05:01:55.669Z,5.47
2022-11-25T05:02:55.572Z,5.49
2022-11-25T05:03:57.638Z,5.41
2022-11-25T05:04:55.424Z,5.41
2022-11-25T05:05:55.514Z,5.51
2022-11-25T05:06:55.297Z,5.44
2022-11-25T05:07:55.244Z,5.48
2022-11-25T05:08:55.157Z,5.44
2022-11-25T05:09:55.135Z,5.56
2022-11-25T05:10:55.023Z,5.41
2022-11-25T05:11:55.068Z,5.51
2022-11-25T05:12:54.916Z,5.47
2022-11-25T05:13:54.861Z,5.47
2022-11-25T05:14:54.759Z,5.49
2022-11-25T05:15:54.677Z,5.48
2022-11-25T05:16:54.775Z,5.48
2022-11-25T05:17:54.556Z,5.48
2022-11-25T05:18:54.486Z,5.37
2022-11-25T05:19:54.397Z,5.41
2022-11-25T05:20:54.352Z,5.42
2022-11-25T05:21:54.267Z,5.45
2022-11-25T05:22:54.204Z,5.40
2022-11-25T05:23:55.991Z,5.48
2022-11-25T05:24:54.106Z,5.45
2022-11-25T05:25:54.014Z,5.44
2022-11-25T05:26:54.022Z,5.49
2022-11-25T05:27:53.933Z,5.49
2022-11-25T05:28:53.793Z,5.37
2022-11-25T05:29:56.232Z,5.42
2022-11-25T05:30:53.704Z,5.41
2022-11-25T05:31:53.634Z,5.41
2022-11-25T05:32:53.579Z,5.41
2022-11-25T05:33:53.446Z,5.48
2022-11-25T05:34:53.443Z,5.47
2022-11-25T05:35:53.377Z,5.38
2022-11-25T05:36:53.259Z,5.45
2022-11-25T05:37:53.260Z,5.45
2022-11-25T05:38:53.112Z,5.45
2022-11-25T05:39:53.064Z,5.35
2022-11-25T05:40:52.975Z,5.48
2022-11-25T05:41:52.932Z,5.44
2022-11-25T05:42:52.854Z,5.45
2022-11-25T05:43:52.774Z,5.52
2022-11-25T05:44:52.698Z,5.51
2022-11-25T05:45:52.685Z,5.45
2022-11-25T05:46:52.596Z,5.51
2022-11-25T05:47:52.506Z,5.44
2022-11-25T05:48:52.445Z,5.47
2022-11-25T05:49:52.374Z,5.51
2022-11-25T05:50:52.302Z,5.40
2022-11-25T05:51:52.232Z,5.44
2022-11-25T05:52:52.167Z,5.47
2022-11-25T05:53:52.112Z,5.44
2022-11-25T05:54:56.786Z,5.44
2022-11-25T05:55:51.955Z,5.44
2022-11-25T05:56:51.885Z,5.37
2022-11-25T05:57:51.863Z,5.44
2022-11-25T05:58:51.766Z,5.44
2022-11-25T05:59:51.828Z,5.47
2022-11-25T06:00:51.647Z,5.42
2022-11-25T06:01:51.669Z,5.48
2022-11-25T06:02:51.629Z,5.41
2022-11-25T06:03:51.463Z,5.49
2022-11-25T06:04:51.347Z,5.41
2022-11-25T06:05:51.343Z,5.51
2022-11-25T06:06:51.215Z,5.45
2022-11-25T06:07:51.177Z,5.55
2022-11-25T06:08:51.134Z,5.56
2022-11-25T06:09:51.067Z,5.48
2022-11-25T06:10:50.942Z,5.49
2022-11-25T06:11:50.974Z,5.44
2022-11-25T06:12:50.797Z,5.42
2022-11-25T06:13:50.891Z,5.52
2022-11-25T06:14:50.658Z,5.48
2022-11-25T06:15:50.638Z,5.49
2022-11-25T06:16:50.542Z,5.47
2022-11-25T06:17:50.469Z,5.44
2022-11-25T06:18:50.387Z,5.40
2022-11-25T06:19:50.418Z,5.42
2022-11-25T06:20:50.302Z,5.37
2022-11-25T06:21:50.204Z,5.44
2022-11-25T06:22:50.138Z,5.45
2022-11-25T06:23:50.105Z,5.35
2022-11-25T06:24:57.574Z,5.40
2022-11-25T06:25:49.916Z,5.33
2022-11-25T06:26:49.856Z,5.27
2022-11-25T06:28:11.831Z,5.19
2022-11-25T06:28:49.752Z,5.26
2022-11-25T06:29:49.648Z,5.12
2022-11-25T06:30:49.649Z,5.15
2022-11-25T06:31:49.565Z,5.19
2022-11-25T06:33:49.368Z,5.09
2022-11-25T06:34:49.305Z,5.05
2022-11-25T06:35:49.253Z,5.01
2022-11-25T06:36:49.455Z,4.94
2022-11-25T06:37:49.096Z,4.93
2022-11-25T06:38:49.086Z,4.86
2022-11-25T06:39:49.011Z,4.91
2022-11-25T06:40:48.949Z,4.86
2022-11-25T06:41:48.824Z,4.88
2022-11-25T06:42:48.751Z,5.01
2022-11-25T06:43:48.710Z,4.94
2022-11-25T06:44:48.617Z,4.97
2022-11-25T06:45:48.543Z,4.97
2022-11-25T06:46:48.551Z,4.96
2022-11-25T06:47:48.409Z,4.93
2022-11-25T06:48:48.340Z,4.88
2022-11-25T06:49:48.274Z,4.87
2022-11-25T06:50:48.243Z,4.83
2022-11-25T06:51:48.148Z,4.74
2022-11-25T06:52:48.095Z,4.64
2022-11-25T06:53:48.011Z,4.71
2022-11-25T06:54:47.972Z,4.65
2022-11-25T06:55:47.873Z,4.77
2022-11-25T06:56:47.792Z,4.79
2022-11-25T06:57:47.723Z,4.77
2022-11-25T06:58:47.727Z,4.79
2022-11-25T06:59:47.636Z,4.75
2022-11-25T07:00:47.518Z,4.91
2022-11-25T07:01:47.521Z,4.90
2022-11-25T07:02:48.869Z,4.87
2022-11-25T07:03:47.322Z,4.80
2022-11-25T07:04:47.265Z,4.72
2022-11-25T07:05:47.229Z,4.68
2022-11-25T07:06:47.136Z,4.74
2022-11-25T07:07:47.108Z,4.71
2022-11-25T07:08:46.970Z,4.59
2022-11-25T07:09:46.912Z,4.59
2022-11-25T07:10:46.836Z,4.64
2022-11-25T07:11:46.755Z,4.65
2022-11-25T07:12:46.777Z,4.59
2022-11-25T07:13:46.954Z,4.54
2022-11-25T07:14:46.574Z,4.56
2022-11-25T07:15:46.596Z,4.46
2022-11-25T07:16:46.417Z,4.35
2022-11-25T07:17:46.371Z,4.36
2022-11-25T07:18:46.542Z,4.31
2022-11-25T07:19:46.205Z,4.29
2022-11-25T07:20:46.144Z,4.24
2022-11-25T07:21:46.145Z,4.31
2022-11-25T07:22:46.018Z,4.31
2022-11-25T07:23:45.944Z,4.36
2022-11-25T07:24:45.977Z,4.36
2022-11-25T07:25:45.835Z,4.54
2022-11-25T07:26:45.735Z,4.77
2022-11-25T07:27:45.715Z,4.87
2022-11-25T07:28:45.629Z,4.96
2022-11-25T07:30:18.692Z,5.05
2022-11-25T07:31:45.403Z,5.05
2022-11-25T07:32:45.319Z,5.04
2022-11-25T07:33:45.333Z,5.06
2022-11-25T07:34:45.182Z,5.06
2022-11-25T07:35:45.118Z,5.09
2022-11-25T07:36:45.119Z,5.04
2022-11-25T07:37:45.011Z,5.08
2022-11-25T07:38:46.649Z,5.06
2022-11-25T07:39:44.833Z,5.06
2022-11-25T07:40:44.804Z,5.08
2022-11-25T07:41:44.699Z,5.22
2022-11-25T07:42:44.699Z,5.14
2022-11-25T07:43:44.564Z,5.20
2022-11-25T07:44:44.514Z,5.22
2022-11-25T07:45:44.436Z,5.27
2022-11-25T07:46:44.425Z,5.41
2022-11-25T07:47:44.280Z,5.40
2022-11-25T07:48:44.279Z,5.27
2022-11-25T07:49:44.165Z,5.35
2022-11-25T07:50:44.113Z,5.26
2022-11-25T07:51:44.047Z,5.42
2022-11-25T07:52:43.966Z,5.48
2022-11-25T07:53:43.882Z,5.44
2022-11-25T07:54:43.815Z,5.40
2022-11-25T07:55:43.861Z,5.52
2022-11-25T07:56:43.680Z,5.63
2022-11-25T07:57:43.600Z,5.77
2022-11-25T07:58:46.071Z,5.85
2022-11-25T07:59:43.489Z,5.93
2022-11-25T08:00:43.414Z,5.88
2022-11-25T08:01:43.414Z,5.77
2022-11-25T08:02:43.327Z,5.67
2022-11-25T08:03:43.217Z,5.70
2022-11-25T08:04:43.123Z,5.67
2022-11-25T08:05:43.069Z,5.74
2022-11-25T08:06:43.043Z,5.63
2022-11-25T08:07:43.005Z,5.77
2022-11-25T08:08:42.878Z,5.73
2022-11-25T08:09:42.810Z,5.65
2022-11-25T08:10:42.719Z,5.78
2022-11-25T08:11:42.656Z,5.70
2022-11-25T08:12:42.582Z,5.75
2022-11-25T08:13:42.518Z,5.80
2022-11-25T08:14:42.502Z,5.78
2022-11-25T08:15:42.738Z,5.78
2022-11-25T08:16:42.337Z,5.77
2022-11-25T08:17:42.262Z,5.83
2022-11-25T08:18:42.185Z,5.85
2022-11-25T08:19:42.122Z,5.92
2022-11-25T08:20:42.045Z,5.90
2022-11-25T08:21:42.007Z,5.93
2022-11-25T08:22:41.962Z,5.95
2022-11-25T08:23:41.841Z,5.90
2022-11-25T08:24:41.787Z,5.87
2022-11-25T08:25:44.974Z,5.93
2022-11-25T08:26:41.645Z,5.90
2022-11-25T08:27:41.562Z,5.90
2022-11-25T08:28:41.575Z,6.01
2022-11-25T08:29:41.445Z,5.99
2022-11-25T08:30:41.372Z,5.99
2022-11-25T08:31:41.385Z,6.05
2022-11-25T08:32:41.285Z,6.08
2022-11-25T08:33:41.177Z,6.05
2022-11-25T08:34:41.101Z,6.02
2022-11-25T08:35:41.038Z,6.10
2022-11-25T08:36:46.571Z,6.03
2022-11-25T08:37:40.930Z,6.08
2022-11-25T08:38:40.825Z,6.10
2022-11-25T08:39:56.686Z,6.19
2022-11-25T08:40:40.715Z,6.24
2022-11-25T08:41:40.629Z,6.06
2022-11-25T08:42:40.549Z,6.25
2022-11-25T08:43:40.514Z,6.20
2022-11-25T08:44:40.448Z,6.21
2022-11-25T08:45:40.339Z,6.20
2022-11-25T08:46:40.369Z,6.21
2022-11-25T08:47:40.209Z,6.35
2022-11-25T08:48:40.209Z,6.27
2022-11-25T08:49:41.520Z,6.30
2022-11-25T08:50:40.023Z,6.39
2022-11-25T08:51:40.075Z,6.43
2022-11-25T08:52:39.897Z,6.51
2022-11-25T08:53:39.802Z,6.50
2022-11-25T08:54:39.743Z,6.40
2022-11-25T08:55:39.677Z,6.54
2022-11-25T08:56:39.657Z,6.51
2022-11-25T08:57:39.662Z,6.54
2022-11-25T08:58:39.476Z,6.57
2022-11-25T08:59:39.921Z,6.60
2022-11-25T09:00:39.335Z,6.57
2022-11-25T09:01:39.354Z,6.54
2022-11-25T09:02:39.294Z,6.55
2022-11-25T09:03:39.137Z,6.53
2022-11-25T09:04:39.142Z,6.51
2022-11-25T09:05:39.028Z,6.58
2022-11-25T09:06:38.924Z,6.54
2022-11-25T09:07:38.929Z,6.60
2022-11-25T09:08:38.846Z,6.69
2022-11-25T09:09:39.164Z,6.63
2022-11-25T09:10:38.668Z,6.60
2022-11-25T09:11:38.760Z,6.57
2022-11-25T09:12:38.548Z,6.72
2022-11-25T09:13:38.599Z,6.72
2022-11-25T09:14:38.447Z,6.65
2022-11-25T09:15:38.379Z,6.63
2022-11-25T09:16:38.324Z,6.57
2022-11-25T09:17:38.210Z,6.73
2022-11-25T09:18:38.128Z,6.72
2022-11-25T09:19:38.320Z,6.79
2022-11-25T09:20:37.990Z,6.75
2022-11-25T09:21:37.977Z,6.93
2022-11-25T09:22:37.873Z,6.96
2022-11-25T09:23:37.837Z,7.00
2022-11-25T09:24:37.725Z,6.97
2022-11-25T09:25:37.664Z,6.97
2022-11-25T09:26:37.578Z,7.00
2022-11-25T09:27:37.546Z,7.05
2022-11-25T09:28:37.446Z,7.04
2022-11-25T09:29:37.582Z,7.14
2022-11-25T09:30:37.317Z,7.14
2022-11-25T09:31:37.351Z,7.07
2022-11-25T09:32:37.194Z,7.26
2022-11-25T09:33:37.111Z,7.21
2022-11-25T09:34:37.279Z,7.30
2022-11-25T09:35:37.000Z,7.32
2022-11-25T09:36:36.936Z,7.45
2022-11-25T09:37:36.845Z,7.63
2022-11-25T09:38:41.675Z,7.69
2022-11-25T09:39:36.973Z,7.81
2022-11-25T09:40:36.651Z,7.63
2022-11-25T09:41:36.580Z,7.73
2022-11-25T09:42:36.534Z,7.81
2022-11-25T09:43:36.455Z,7.74
2022-11-25T09:44:36.381Z,7.52
2022-11-25T09:45:36.317Z,7.18
2022-11-25T09:46:36.279Z,7.12
2022-11-25T09:47:36.200Z,7.16
2022-11-25T09:48:36.133Z,7.14
2022-11-25T09:49:36.330Z,7.15
2022-11-25T09:50:36.000Z,7.09
2022-11-25T09:51:35.920Z,6.99
2022-11-25T09:52:35.918Z,6.86
2022-11-25T09:53:35.816Z,6.83
2022-11-25T09:54:35.727Z,6.75
2022-11-25T09:55:35.673Z,6.78
2022-11-25T09:56:35.607Z,6.91
2022-11-25T09:57:35.549Z,6.90
2022-11-25T09:58:35.484Z,6.87
2022-11-25T09:59:35.728Z,6.93
2022-11-25T10:00:35.352Z,6.89
2022-11-25T10:01:35.263Z,7.00
2022-11-25T10:02:35.437Z,6.94
2022-11-25T10:03:35.180Z,6.87
2022-11-25T10:04:35.083Z,6.89
2022-11-25T10:05:35.003Z,6.99
2022-11-25T10:06:35.040Z,6.99
2022-11-25T10:07:34.894Z,7.11
2022-11-25T10:08:34.802Z,7.15
2022-11-25T10:09:35.143Z,7.18
2022-11-25T10:10:34.690Z,7.11
2022-11-25T10:11:34.618Z,6.94
2022-11-25T10:12:34.553Z,6.99
2022-11-25T10:13:34.469Z,6.99
2022-11-25T10:14:34.407Z,6.97
2022-11-25T10:15:34.336Z,7.00
2022-11-25T10:16:34.343Z,7.09
2022-11-25T10:17:34.226Z,7.34
2022-11-25T10:18:34.146Z,7.74
2022-11-25T10:19:34.498Z,8.09
2022-11-25T10:20:34.034Z,8.28
2022-11-25T10:21:33.947Z,8.31
2022-11-25T10:22:33.886Z,7.92
2022-11-25T10:23:33.826Z,7.84
2022-11-25T10:24:38.464Z,7.63
2022-11-25T10:25:33.781Z,7.58
2022-11-25T10:26:33.613Z,7.60
2022-11-25T10:27:33.535Z,7.45
2022-11-25T10:28:33.476Z,7.48
2022-11-25T10:29:33.423Z,7.67
2022-11-25T10:30:33.388Z,7.69
2022-11-25T10:31:33.348Z,7.81
2022-11-25T10:32:33.236Z,7.81
2022-11-25T10:33:33.153Z,7.71
2022-11-25T10:34:33.102Z,7.39
2022-11-25T10:35:33.049Z,7.52
2022-11-25T10:36:32.965Z,7.50
2022-11-25T10:37:32.887Z,7.52
2022-11-25T10:38:32.840Z,7.62
2022-11-25T10:39:32.762Z,7.66
2022-11-25T10:40:32.685Z,7.67
2022-11-25T10:41:32.672Z,8.12
2022-11-25T10:42:32.558Z,8.07
2022-11-25T10:43:32.627Z,8.43
2022-11-25T10:44:32.439Z,8.50
2022-11-25T10:45:32.380Z,8.73
2022-11-25T10:46:50.074Z,8.67
2022-11-25T10:47:32.361Z,8.67
2022-11-25T10:48:32.173Z,8.63
2022-11-25T10:49:32.133Z,8.54
2022-11-25T10:50:32.109Z,8.43
2022-11-25T10:51:32.227Z,8.31
2022-11-25T10:52:31.902Z,8.43
2022-11-25T10:53:31.853Z,8.55
2022-11-25T10:54:31.848Z,8.70
2022-11-25T10:55:31.747Z,8.97
2022-11-25T10:56:31.675Z,9.06
2022-11-25T10:57:31.605Z,9.16
2022-11-25T10:58:31.539Z,9.19
2022-11-25T10:59:31.483Z,9.16
2022-11-25T11:00:31.418Z,9.20
2022-11-25T11:01:31.382Z,9.17
2022-11-25T11:02:31.306Z,9.38
2022-11-25T11:03:31.231Z,9.56
2022-11-25T11:04:31.171Z,9.62
2022-11-25T11:05:31.117Z,9.49
2022-11-25T11:06:31.105Z,9.56
2022-11-25T11:07:31.047Z,9.35
2022-11-25T11:08:30.903Z,9.27
2022-11-25T11:09:30.824Z,8.94
2022-11-25T11:10:30.769Z,8.86
2022-11-25T11:11:30.777Z,8.78
2022-11-25T11:12:30.822Z,8.55
2022-11-25T11:13:30.589Z,8.45
2022-11-25T11:14:30.524Z,8.32
2022-11-25T11:15:30.440Z,8.18
2022-11-25T11:16:30.489Z,8.14
2022-11-25T11:17:34.841Z,8.07
2022-11-25T11:18:30.254Z,8.04
2022-11-25T11:19:30.181Z,7.99
2022-11-25T11:20:30.121Z,7.95
2022-11-25T11:21:30.054Z,7.94
2022-11-25T11:22:29.993Z,7.79
2022-11-25T11:23:29.942Z,7.82
2022-11-25T11:24:29.882Z,7.76
2022-11-25T11:25:29.794Z,7.86
2022-11-25T11:26:29.744Z,7.95
2022-11-25T11:27:29.668Z,7.94
2022-11-25T11:28:29.632Z,7.95
2022-11-25T11:29:29.559Z,8.03
2022-11-25T11:30:29.465Z,8.03
2022-11-25T11:31:29.478Z,8.12
2022-11-25T11:32:29.369Z,8.12
2022-11-25T11:33:29.306Z,8.02
2022-11-25T11:34:29.238Z,8.10
2022-11-25T11:35:29.146Z,8.12
2022-11-25T11:36:29.098Z,8.12
2022-11-25T11:37:29.025Z,7.96
2022-11-25T11:38:28.961Z,8.00
2022-11-25T11:39:28.912Z,7.89
2022-11-25T11:40:28.837Z,8.02
2022-11-25T11:41:28.770Z,7.99
2022-11-25T11:42:28.682Z,8.10
2022-11-25T11:43:28.828Z,8.18
2022-11-25T11:44:28.553Z,8.04
2022-11-25T11:45:28.485Z,8.04
2022-11-25T11:46:28.517Z,8.12
2022-11-25T11:47:28.355Z,7.99
2022-11-25T11:48:28.319Z,8.03
2022-11-25T11:49:30.769Z,8.09
2022-11-25T11:50:28.169Z,8.17
2022-11-25T11:51:28.083Z,8.03
2022-11-25T11:52:28.015Z,8.10
2022-11-25T11:53:27.960Z,8.07
2022-11-25T11:54:27.947Z,8.12
2022-11-25T11:55:27.819Z,8.13
2022-11-25T11:56:35.196Z,8.13
2022-11-25T11:57:27.703Z,8.12
2022-11-25T11:58:27.621Z,8.12
2022-11-25T11:59:27.681Z,8.13
2022-11-25T12:00:27.501Z,8.06
2022-11-25T12:01:27.516Z,8.09
2022-11-25T12:02:27.385Z,8.13
2022-11-25T12:03:27.405Z,8.18
2022-11-25T12:04:27.237Z,8.07
2022-11-25T12:05:27.168Z,8.12
2022-11-25T12:06:27.093Z,8.12
2022-11-25T12:07:27.053Z,8.12
2022-11-25T12:08:26.956Z,8.00
2022-11-25T12:09:26.889Z,8.10
2022-11-25T12:10:26.844Z,7.99
2022-11-25T12:11:26.760Z,8.04
2022-11-25T12:12:26.730Z,8.12
2022-11-25T12:13:26.631Z,8.04
2022-11-25T12:14:26.552Z,8.07
2022-11-25T12:15:26.514Z,7.96
2022-11-25T12:16:26.467Z,7.96
2022-11-25T12:17:26.383Z,7.99
2022-11-25T12:18:26.300Z,7.99
2022-11-25T12:19:26.225Z,8.03
2022-11-25T12:20:26.171Z,8.02
2022-11-25T12:21:26.092Z,7.96
2022-11-25T12:22:26.054Z,7.99
2022-11-25T12:23:25.960Z,7.96
2022-11-25T12:24:25.886Z,8.12
2022-11-25T12:25:25.814Z,8.14
2022-11-25T12:26:25.770Z,8.02
2022-11-25T12:27:25.711Z,8.00
2022-11-25T12:28:25.622Z,8.06
2022-11-25T12:29:25.565Z,8.02
2022-11-25T12:30:25.535Z,8.00
2022-11-25T12:31:25.449Z,7.99
2022-11-25T12:32:25.345Z,8.03
2022-11-25T12:33:25.293Z,7.94
2022-11-25T12:34:25.248Z,7.95
2022-11-25T12:35:25.152Z,7.85
2022-11-25T12:36:25.102Z,7.86
2022-11-25T12:37:25.029Z,7.79
2022-11-25T12:38:24.962Z,7.79
2022-11-25T12:39:24.913Z,7.82
2022-11-25T12:40:24.820Z,7.74
2022-11-25T12:41:24.744Z,7.70
2022-11-25T12:42:24.687Z,7.77
2022-11-25T12:43:24.609Z,7.62
2022-11-25T12:44:24.541Z,7.66
2022-11-25T12:45:24.569Z,7.60
2022-11-25T12:46:24.473Z,7.62
2022-11-25T12:47:24.354Z,7.58
2022-11-25T12:48:24.280Z,7.62
2022-11-25T12:49:24.221Z,7.62
2022-11-25T12:50:24.138Z,7.66
2022-11-25T12:51:24.097Z,7.60
2022-11-25T12:52:24.006Z,7.62
2022-11-25T12:53:23.976Z,7.62
2022-11-25T12:54:23.898Z,7.63
2022-11-25T12:55:23.806Z,7.66
2022-11-25T12:56:23.742Z,7.58
2022-11-25T12:57:23.685Z,7.62
2022-11-25T12:58:23.694Z,7.62
2022-11-25T12:59:23.541Z,7.63
2022-11-25T13:01:23.502Z,7.63
2022-11-25T13:02:23.403Z,7.55
2022-11-25T13:03:23.270Z,7.52
2022-11-25T13:04:23.230Z,7.58
2022-11-25T13:05:40.075Z,7.52
2022-11-25T13:06:23.113Z,7.55
2022-11-25T13:07:23.107Z,7.48
2022-11-25T13:08:22.930Z,7.55
2022-11-25T13:09:22.869Z,7.45
2022-11-25T13:10:22.810Z,7.45
2022-11-25T13:11:23.100Z,7.48
2022-11-25T13:12:22.963Z,7.47
2022-11-25T13:13:22.977Z,7.44
2022-11-25T13:14:22.965Z,7.45
2022-11-25T13:15:22.988Z,7.44
2022-11-25T13:16:23.072Z,7.41
2022-11-25T13:17:22.845Z,7.44
2022-11-25T13:18:22.368Z,7.33
2022-11-25T13:19:22.216Z,7.36
2022-11-25T13:20:22.131Z,7.34